createdAt,value
2022-09-16T00:01:11.732Z,95.00
2022-09-16T00:03:41.421Z,96.00
2022-09-16T00:06:19.548Z,95.90
2022-09-16T00:08:47.809Z,95.80
2022-09-16T00:11:16.158Z,95.10
2022-09-16T00:13:44.310Z,95.40
2022-09-16T00:16:17.016Z,94.40
2022-09-16T00:18:46.344Z,93.60
2022-09-16T00:21:15.206Z,95.40
2022-09-16T00:23:43.178Z,94.80
2022-09-16T00:26:11.081Z,95.40
2022-09-16T00:28:39.040Z,95.20
2022-09-16T00:31:07.227Z,94.40
2022-09-16T00:33:35.178Z,95.40
2022-09-16T00:36:12.715Z,94.50
2022-09-16T00:38:41.197Z,95.50
2022-09-16T00:41:13.587Z,95.10
2022-09-16T00:43:53.818Z,95.60
2022-09-16T00:46:26.627Z,93.70
2022-09-16T00:48:54.773Z,93.80
2022-09-16T00:51:25.328Z,95.80
2022-09-16T00:54:00.101Z,95.40
2022-09-16T00:56:29.699Z,95.70
2022-09-16T00:59:04.071Z,95.60
2022-09-16T01:01:33.335Z,95.10
2022-09-16T01:04:05.448Z,95.30
2022-09-16T01:06:39.423Z,94.30
2022-09-16T01:09:07.836Z,95.60
2022-09-16T01:11:35.815Z,95.40
2022-09-16T01:14:19.146Z,95.40
2022-09-16T01:16:58.163Z,95.10
2022-09-16T01:19:49.003Z,94.70
2022-09-16T01:22:37.309Z,94.20
2022-09-16T01:25:18.954Z,95.60
2022-09-16T01:28:13.050Z,96.30
2022-09-16T01:31:00.684Z,95.00
2022-09-16T01:33:39.164Z,94.90
2022-09-16T01:36:26.885Z,94.50
2022-09-16T01:39:05.306Z,95.70
2022-09-16T01:41:44.449Z,95.70
2022-09-16T01:44:22.261Z,95.90
2022-09-16T01:47:00.691Z,94.10
2022-09-16T01:49:38.054Z,95.50
2022-09-16T01:52:18.154Z,94.20
2022-09-16T01:54:52.820Z,94.30
2022-09-16T01:57:24.761Z,95.80
2022-09-16T01:59:58.412Z,95.20
2022-09-16T02:02:33.007Z,95.00
2022-09-16T02:05:04.860Z,95.50
2022-09-16T02:07:36.259Z,95.50
2022-09-16T02:10:09.655Z,95.40
2022-09-16T02:12:41.245Z,95.70
2022-09-16T02:15:13.354Z,94.90
2022-09-16T02:17:46.901Z,95.20
2022-09-16T02:20:20.146Z,94.50
2022-09-16T02:22:52.249Z,95.90
2022-09-16T02:25:20.753Z,96.30
2022-09-16T02:27:50.339Z,95.50
2022-09-16T02:30:21.134Z,96.10
2022-09-16T02:32:55.831Z,95.80
2022-09-16T02:35:24.775Z,95.70
2022-09-16T02:37:56.650Z,95.80
2022-09-16T02:40:29.623Z,95.90
2022-09-16T02:42:58.594Z,95.60
2022-09-16T02:45:32.467Z,95.80
2022-09-16T02:48:07.432Z,95.20
2022-09-16T02:50:41.193Z,95.30
2022-09-16T02:53:14.228Z,94.50
2022-09-16T02:55:52.132Z,95.00
2022-09-16T02:58:20.262Z,96.00
2022-09-16T03:00:51.104Z,95.80
2022-09-16T03:03:20.590Z,94.90
2022-09-16T03:06:14.608Z,95.40
2022-09-16T03:08:44.242Z,94.90
2022-09-16T03:11:29.926Z,95.10
2022-09-16T03:14:15.444Z,95.10
2022-09-16T03:16:53.959Z,95.10
2022-09-16T03:19:30.886Z,94.70
2022-09-16T03:22:03.624Z,95.20
2022-09-16T03:24:41.715Z,95.30
2022-09-16T03:27:15.444Z,95.20
2022-09-16T03:29:50.574Z,95.30
2022-09-16T03:32:22.290Z,95.10
2022-09-16T03:34:55.208Z,93.40
2022-09-16T03:37:24.745Z,94.70
2022-09-16T03:39:56.401Z,95.30
2022-09-16T03:42:24.474Z,94.90
2022-09-16T03:44:52.341Z,95.20
2022-09-16T03:47:20.196Z,93.40
2022-09-16T03:49:48.110Z,94.60
2022-09-16T03:52:19.061Z,95.30
2022-09-16T03:54:47.058Z,95.10
2022-09-16T03:57:14.966Z,95.50
2022-09-16T03:59:42.994Z,95.30
2022-09-16T04:02:10.900Z,95.00
2022-09-16T04:04:38.900Z,95.30
2022-09-16T04:07:06.755Z,95.80
2022-09-16T04:09:37.232Z,95.30
2022-09-16T04:12:07.610Z,94.40
2022-09-16T04:14:35.925Z,94.30
2022-09-16T04:17:04.627Z,95.00
2022-09-16T04:19:33.015Z,95.40
2022-09-16T04:22:01.051Z,95.50
2022-09-16T04:24:28.913Z,96.60
2022-09-16T04:26:58.133Z,96.10
2022-09-16T04:29:26.014Z,95.80
2022-09-16T04:31:53.889Z,95.60
2022-09-16T04:34:21.754Z,96.20
2022-09-16T04:36:49.661Z,96.00
2022-09-16T04:39:17.735Z,94.50
2022-09-16T04:41:45.604Z,95.60
2022-09-16T04:44:15.153Z,95.00
2022-09-16T04:46:43.105Z,96.10
2022-09-16T04:49:12.707Z,96.00
2022-09-16T04:51:40.635Z,95.10
2022-09-16T04:54:08.508Z,95.80
2022-09-16T04:56:36.418Z,94.90
2022-09-16T04:59:06.121Z,95.80
2022-09-16T05:01:38.099Z,96.30
2022-09-16T05:04:08.326Z,95.90
2022-09-16T05:06:38.488Z,94.50
2022-09-16T05:09:06.949Z,94.70
2022-09-16T05:11:36.870Z,96.30
2022-09-16T05:14:07.445Z,95.20
2022-09-16T05:16:36.665Z,96.30
2022-09-16T05:19:05.582Z,94.40
2022-09-16T05:21:36.318Z,95.90
2022-09-16T05:24:07.638Z,95.40
2022-09-16T05:26:37.439Z,95.60
2022-09-16T05:29:07.940Z,96.20
2022-09-16T05:31:39.000Z,95.20
2022-09-16T05:34:08.839Z,95.40
2022-09-16T05:36:39.119Z,95.40
2022-09-16T05:39:24.496Z,95.10
2022-09-16T05:41:56.279Z,96.30
2022-09-16T05:44:24.521Z,96.80
2022-09-16T05:46:54.009Z,97.20
2022-09-16T05:49:23.265Z,98.00
2022-09-16T05:51:52.178Z,98.30
2022-09-16T05:54:20.588Z,98.50
2022-09-16T05:56:48.791Z,98.20
2022-09-16T05:59:18.002Z,98.30
2022-09-16T06:01:46.863Z,97.90
2022-09-16T06:04:16.680Z,98.10
2022-09-16T06:06:45.943Z,97.50
2022-09-16T06:09:16.114Z,98.30
2022-09-16T06:11:45.953Z,98.10
2022-09-16T06:14:15.746Z,98.30
2022-09-16T06:16:44.624Z,95.40
2022-09-16T06:19:14.583Z,95.60
2022-09-16T06:21:45.174Z,95.90
2022-09-16T06:24:14.092Z,96.00
2022-09-16T06:26:43.918Z,95.90
2022-09-16T06:29:12.834Z,95.90
2022-09-16T06:31:41.256Z,95.30
2022-09-16T06:34:13.985Z,95.20
2022-09-16T06:36:45.417Z,95.70
2022-09-16T06:39:14.869Z,95.80
2022-09-16T06:41:43.029Z,96.10
2022-09-16T06:44:11.222Z,96.00
2022-09-16T06:46:39.129Z,94.40
2022-09-16T06:49:07.080Z,95.60
2022-09-16T06:51:36.777Z,95.40
2022-09-16T06:54:08.266Z,94.80
2022-09-16T06:56:39.204Z,94.10
2022-09-16T06:59:07.749Z,95.40
2022-09-16T07:01:35.981Z,95.40
2022-09-16T07:04:06.517Z,95.60
2022-09-16T07:09:24.682Z,95.80
2022-09-16T07:11:52.566Z,95.50
2022-09-16T07:14:20.470Z,95.60
2022-09-16T07:16:48.440Z,95.70
2022-09-16T07:19:16.344Z,94.90
2022-09-16T07:21:44.267Z,94.30
2022-09-16T07:24:14.288Z,94.10
2022-09-16T07:26:44.522Z,94.90
2022-09-16T07:29:13.963Z,94.50
2022-09-16T07:31:42.407Z,95.70
2022-09-16T07:34:11.984Z,94.40
2022-09-16T07:36:41.274Z,95.30
2022-09-16T07:39:09.981Z,95.80
2022-09-16T07:41:39.268Z,95.50
2022-09-16T07:44:10.803Z,94.20
2022-09-16T07:46:38.685Z,95.90
2022-09-16T07:49:08.805Z,95.80
2022-09-16T07:51:36.884Z,95.70
2022-09-16T07:54:06.917Z,94.60
2022-09-16T07:56:39.838Z,95.60
2022-09-16T07:59:15.825Z,95.10
2022-09-16T08:01:46.926Z,95.40
2022-09-16T08:04:14.912Z,95.40
2022-09-16T08:06:42.780Z,95.50
2022-09-16T08:09:37.267Z,95.40
2022-09-16T08:11:58.824Z,95.20
2022-09-16T08:14:28.097Z,95.10
2022-09-16T08:16:56.018Z,94.90
2022-09-16T08:19:23.901Z,94.70
2022-09-16T08:21:52.635Z,94.60
2022-09-16T08:24:20.643Z,94.50
2022-09-16T08:26:48.563Z,94.40
2022-09-16T08:29:16.818Z,93.00
2022-09-16T08:31:46.386Z,94.30
2022-09-16T08:34:14.420Z,94.50
2022-09-16T08:36:42.296Z,94.30
2022-09-16T08:39:11.464Z,91.80
2022-09-16T08:42:29.182Z,93.10
2022-09-16T08:45:09.206Z,93.80
2022-09-16T08:47:50.492Z,94.10
2022-09-16T08:50:24.999Z,91.30
2022-09-16T08:52:57.609Z,91.00
2022-09-16T08:55:31.584Z,90.40
2022-09-16T08:58:05.950Z,89.20
2022-09-16T09:00:34.492Z,89.50
2022-09-16T09:03:15.782Z,91.30
2022-09-16T09:05:49.836Z,90.10
2022-09-16T09:08:31.038Z,90.20
2022-09-16T09:11:07.087Z,88.60
2022-09-16T09:13:49.250Z,88.50
2022-09-16T09:16:26.394Z,87.80
2022-09-16T09:19:06.894Z,88.60
2022-09-16T09:21:42.275Z,88.50
2022-09-16T09:24:25.842Z,89.10
2022-09-16T09:26:59.592Z,87.80
2022-09-16T09:29:38.652Z,89.30
2022-09-16T09:32:19.298Z,88.20
2022-09-16T09:34:59.949Z,89.00
2022-09-16T09:37:39.299Z,90.40
2022-09-16T09:40:14.427Z,90.60
2022-09-16T09:42:46.902Z,90.90
2022-09-16T09:45:22.830Z,91.10
2022-09-16T09:47:55.081Z,91.10
2022-09-16T09:50:30.476Z,90.40
2022-09-16T09:53:13.359Z,91.20
2022-09-16T09:55:42.760Z,91.40
2022-09-16T09:58:20.110Z,91.40
2022-09-16T10:00:48.366Z,91.40
2022-09-16T10:03:18.465Z,91.20
2022-09-16T10:05:49.319Z,90.70
2022-09-16T10:08:24.988Z,90.70
2022-09-16T10:10:54.351Z,91.10
2022-09-16T10:13:23.971Z,87.70
2022-09-16T10:15:55.812Z,87.10
2022-09-16T10:18:29.636Z,87.80
2022-09-16T10:21:07.740Z,87.00
2022-09-16T10:23:36.500Z,85.40
2022-09-16T10:26:18.439Z,90.50
2022-09-16T10:28:56.313Z,92.30
2022-09-16T10:31:27.246Z,90.80
2022-09-16T10:33:57.966Z,89.60
2022-09-16T10:36:33.690Z,90.10
2022-09-16T10:39:04.742Z,88.70
2022-09-16T10:41:35.325Z,90.70
2022-09-16T10:44:05.593Z,90.00
2022-09-16T10:46:34.210Z,90.40
2022-09-16T10:49:10.864Z,86.50
2022-09-16T10:51:40.191Z,92.40
2022-09-16T10:54:11.094Z,93.80
2022-09-16T10:56:49.892Z,93.50
2022-09-16T10:59:17.892Z,92.90
2022-09-16T11:01:52.695Z,93.50
2022-09-16T11:04:40.318Z,90.30
2022-09-16T11:07:21.990Z,91.10
2022-09-16T11:10:00.817Z,92.40
2022-09-16T11:12:58.472Z,91.60
2022-09-16T11:15:37.881Z,92.40
2022-09-16T11:18:22.905Z,91.30
2022-09-16T11:21:04.662Z,91.00
2022-09-16T11:23:47.178Z,92.80
2022-09-16T11:26:23.649Z,97.10
2022-09-16T11:29:14.081Z,95.50
2022-09-16T11:31:49.186Z,98.70
2022-09-16T11:34:31.146Z,99.00
2022-09-16T11:37:09.962Z,98.00
2022-09-16T11:39:52.321Z,92.70
2022-09-16T11:42:29.086Z,96.40
2022-09-16T11:45:07.777Z,99.00
2022-09-16T11:47:53.520Z,98.80
2022-09-16T11:50:35.881Z,99.00
2022-09-16T11:53:32.115Z,98.30
2022-09-16T11:56:07.329Z,98.10
2022-09-16T11:58:41.111Z,97.90
2022-09-16T12:03:57.626Z,93.30
2022-09-16T12:06:30.090Z,91.10
2022-09-16T12:09:04.696Z,92.90
2022-09-16T12:11:40.777Z,92.00
2022-09-16T12:14:15.686Z,92.90
2022-09-16T12:16:49.071Z,93.70
2022-09-16T12:19:22.613Z,93.90
2022-09-16T12:21:57.903Z,93.80
2022-09-16T12:24:34.036Z,96.30
2022-09-16T12:27:10.950Z,96.70
2022-09-16T12:29:44.391Z,97.80
2022-09-16T12:32:16.662Z,96.10
2022-09-16T12:34:49.550Z,95.90
2022-09-16T12:37:33.722Z,96.70
2022-09-16T12:40:02.025Z,95.80
2022-09-16T12:42:55.915Z,94.80
2022-09-16T12:45:45.261Z,97.90
2022-09-16T12:48:47.880Z,97.10
2022-09-16T12:51:31.260Z,95.40
2022-09-16T12:54:32.084Z,97.90
2022-09-16T12:57:25.035Z,97.80
2022-09-16T13:00:14.212Z,98.70
2022-09-16T13:02:47.265Z,99.00
2022-09-16T13:05:21.143Z,98.50
2022-09-16T13:07:53.318Z,98.20
2022-09-16T13:10:40.434Z,97.90
2022-09-16T13:13:21.151Z,97.60
2022-09-16T13:15:58.394Z,97.50
2022-09-16T13:18:40.584Z,97.50
2022-09-16T13:21:17.426Z,97.60
2022-09-16T13:23:48.950Z,97.60
2022-09-16T13:26:16.894Z,97.60
2022-09-16T13:28:46.476Z,97.40
2022-09-16T13:31:21.747Z,97.50
2022-09-16T13:34:02.958Z,97.70
2022-09-16T13:36:33.048Z,97.90
2022-09-16T13:39:02.444Z,98.30
2022-09-16T13:41:36.081Z,98.20
2022-09-16T13:44:25.392Z,98.20
2022-09-16T13:46:55.103Z,98.40
2022-09-16T13:49:27.651Z,98.30
2022-09-16T13:51:56.111Z,97.40
2022-09-16T13:54:29.997Z,97.30
2022-09-16T13:57:22.706Z,97.70
2022-09-16T14:00:11.594Z,97.30
2022-09-16T14:02:57.520Z,97.40
2022-09-16T14:05:42.916Z,97.40
2022-09-16T14:08:19.153Z,97.50
2022-09-16T14:10:56.718Z,97.70
2022-09-16T14:13:26.035Z,95.50
2022-09-16T14:15:57.889Z,96.10
2022-09-16T14:18:30.663Z,94.90
2022-09-16T14:21:02.691Z,95.40
2022-09-16T14:23:32.479Z,95.60
2022-09-16T14:26:11.411Z,96.20
2022-09-16T14:28:39.585Z,96.10
2022-09-16T14:31:09.884Z,96.30
2022-09-16T14:33:44.693Z,95.70
2022-09-16T14:36:19.079Z,95.80
2022-09-16T14:38:58.876Z,96.10
2022-09-16T14:41:33.698Z,93.60
2022-09-16T14:44:08.909Z,95.20
2022-09-16T14:46:42.290Z,96.70
2022-09-16T14:49:13.457Z,96.50
2022-09-16T14:51:45.347Z,95.40
2022-09-16T14:54:19.162Z,96.10
2022-09-16T14:56:57.073Z,96.10
2022-09-16T14:59:28.604Z,96.10
2022-09-16T15:02:01.050Z,96.10
2022-09-16T15:04:35.408Z,96.40
2022-09-16T15:07:12.448Z,96.00
2022-09-16T15:09:45.458Z,95.40
2022-09-16T15:12:23.922Z,95.70
2022-09-16T15:14:51.874Z,93.20
2022-09-16T15:17:22.544Z,93.70
2022-09-16T15:19:55.769Z,92.40
2022-09-16T15:22:24.870Z,93.70
2022-09-16T15:24:55.816Z,92.40
2022-09-16T15:27:28.916Z,92.90
2022-09-16T15:29:59.940Z,93.30
2022-09-16T15:32:31.622Z,93.10
2022-09-16T15:35:16.777Z,93.90
2022-09-16T15:37:44.676Z,91.50
2022-09-16T15:40:34.729Z,94.80
2022-09-16T15:43:13.761Z,94.90
2022-09-16T15:45:42.727Z,95.00
2022-09-16T15:48:17.542Z,95.20
2022-09-16T15:50:50.910Z,95.20
2022-09-16T15:53:23.451Z,95.30
2022-09-16T15:56:00.017Z,95.70
2022-09-16T15:58:39.814Z,95.30
2022-09-16T16:01:14.584Z,93.90
2022-09-16T16:03:55.450Z,92.70
2022-09-16T16:06:46.222Z,95.80
2022-09-16T16:09:49.451Z,95.40
2022-09-16T16:12:18.757Z,94.90
2022-09-16T16:14:46.951Z,94.90
2022-09-16T16:17:16.823Z,94.30
2022-09-16T16:19:46.079Z,92.20
2022-09-16T16:22:15.906Z,95.40
2022-09-16T16:24:43.997Z,95.60
2022-09-16T16:27:12.031Z,94.20
2022-09-16T16:29:39.863Z,95.50
2022-09-16T16:32:10.206Z,96.00
2022-09-16T16:34:40.146Z,96.20
2022-09-16T16:37:08.727Z,94.90
2022-09-16T16:39:38.103Z,95.60
2022-09-16T16:42:06.582Z,94.10
2022-09-16T16:44:34.900Z,96.30
2022-09-16T16:47:02.785Z,96.40
2022-09-16T16:49:30.691Z,96.80
2022-09-16T16:51:58.779Z,95.80
2022-09-16T16:54:27.646Z,96.30
2022-09-16T16:56:57.298Z,96.00
2022-09-16T16:59:25.980Z,95.90
2022-09-16T17:01:55.549Z,95.90
2022-09-16T17:04:24.282Z,95.60
2022-09-16T17:07:14.464Z,95.70
2022-09-16T17:09:40.255Z,95.30
2022-09-16T17:12:10.660Z,92.60
2022-09-16T17:14:38.713Z,91.00
2022-09-16T17:17:06.563Z,89.90
2022-09-16T17:19:34.439Z,89.50
2022-09-16T17:22:02.324Z,88.90
2022-09-16T17:24:30.170Z,88.50
2022-09-16T17:26:58.240Z,89.70
2022-09-16T17:29:27.451Z,90.20
2022-09-16T17:31:56.891Z,91.10
2022-09-16T17:34:26.301Z,91.20
2022-09-16T17:36:54.466Z,90.80
2022-09-16T17:39:22.844Z,90.50
2022-09-16T17:41:51.459Z,92.70
2022-09-16T17:44:20.476Z,92.20
2022-09-16T17:46:49.768Z,93.50
2022-09-16T17:49:20.112Z,93.30
2022-09-16T17:51:48.186Z,90.70
2022-09-16T17:54:16.234Z,92.50
2022-09-16T17:56:44.578Z,93.00
2022-09-16T17:59:14.064Z,93.80
2022-09-16T18:01:42.220Z,93.00
2022-09-16T18:04:11.729Z,92.70
2022-09-16T18:06:42.674Z,93.50
2022-09-16T18:09:11.037Z,90.50
2022-09-16T18:11:39.998Z,94.30
2022-09-16T18:14:11.061Z,92.60
2022-09-16T18:16:39.139Z,91.70
2022-09-16T18:19:07.807Z,91.20
2022-09-16T18:21:38.068Z,93.30
2022-09-16T18:24:10.926Z,93.10
2022-09-16T18:26:39.084Z,96.50
2022-09-16T18:29:11.611Z,94.80
2022-09-16T18:31:49.472Z,96.70
2022-09-16T18:34:18.043Z,93.90
2022-09-16T18:36:47.349Z,96.40
2022-09-16T18:39:16.858Z,93.70
2022-09-16T18:41:46.115Z,94.50
2022-09-16T18:44:16.572Z,92.70
2022-09-16T18:46:44.791Z,94.20
2022-09-16T18:49:14.066Z,96.50
2022-09-16T18:51:47.309Z,96.00
2022-09-16T18:54:24.465Z,93.50
2022-09-16T18:56:55.422Z,96.20
2022-09-16T18:59:26.838Z,95.60
2022-09-16T19:01:57.195Z,95.30
2022-09-16T19:04:27.035Z,96.70
2022-09-16T19:06:56.883Z,96.30
2022-09-16T19:09:26.339Z,94.70
2022-09-16T19:11:55.050Z,93.60
2022-09-16T19:14:24.884Z,96.40
2022-09-16T19:16:53.131Z,96.40
2022-09-16T19:19:21.767Z,95.60
2022-09-16T19:21:49.915Z,95.80
2022-09-16T19:24:19.465Z,95.90
2022-09-16T19:26:50.366Z,95.60
2022-09-16T19:29:19.135Z,95.60
2022-09-16T19:31:48.486Z,94.10
2022-09-16T19:34:17.675Z,95.20
2022-09-16T19:36:45.764Z,95.30
2022-09-16T19:39:14.785Z,95.80
2022-09-16T19:41:43.206Z,95.20
2022-09-16T19:44:16.129Z,95.30
2022-09-16T19:46:46.727Z,95.20
2022-09-16T19:49:17.008Z,95.20
2022-09-16T19:51:45.071Z,95.20
2022-09-16T19:54:13.066Z,95.20
2022-09-16T19:56:41.134Z,95.20
2022-09-16T19:59:09.097Z,95.10
2022-09-16T20:01:38.752Z,95.00
2022-09-16T20:04:08.439Z,95.10
2022-09-16T20:06:38.585Z,95.10
2022-09-16T20:09:09.183Z,95.00
2022-09-16T20:11:38.672Z,94.20
2022-09-16T20:14:08.599Z,93.80
2022-09-16T20:16:39.698Z,95.60
2022-09-16T20:19:09.830Z,93.50
2022-09-16T20:21:38.331Z,94.50
2022-09-16T20:24:08.297Z,95.40
2022-09-16T20:26:36.955Z,95.10
2022-09-16T20:29:05.587Z,95.10
2022-09-16T20:31:36.578Z,94.90
2022-09-16T20:34:06.667Z,92.50
2022-09-16T20:36:38.115Z,94.50
2022-09-16T20:39:06.858Z,94.30
2022-09-16T20:41:36.405Z,93.70
2022-09-16T20:44:05.182Z,94.90
2022-09-16T20:46:35.127Z,93.30
2022-09-16T20:49:06.518Z,95.40
2022-09-16T20:51:35.065Z,95.10
2022-09-16T20:54:08.577Z,94.80
2022-09-16T20:56:39.457Z,95.30
2022-09-16T20:59:08.399Z,94.50
2022-09-16T21:01:37.291Z,93.30
2022-09-16T21:04:08.993Z,95.40
2022-09-16T21:06:37.576Z,95.10
2022-09-16T21:09:08.756Z,94.60
2022-09-16T21:11:37.312Z,95.00
2022-09-16T21:14:07.552Z,94.80
2022-09-16T21:16:36.953Z,94.40
2022-09-16T21:19:09.215Z,95.00
2022-09-16T21:21:38.755Z,95.00
2022-09-16T21:24:08.601Z,94.30
2022-09-16T21:26:38.149Z,94.90
2022-09-16T21:29:09.853Z,95.30
2022-09-16T21:31:39.271Z,94.50
2022-09-16T21:34:12.205Z,94.00
2022-09-16T21:36:40.318Z,93.80
2022-09-16T21:39:08.844Z,92.80
2022-09-16T21:41:36.819Z,94.50
2022-09-16T21:44:05.528Z,95.40
2022-09-16T21:46:36.883Z,94.50
2022-09-16T21:49:06.218Z,95.00
2022-09-16T21:51:38.481Z,94.60
2022-09-16T21:54:09.203Z,94.00
2022-09-16T21:56:39.016Z,93.30
2022-09-16T21:59:07.548Z,95.40
2022-09-16T22:01:36.422Z,95.10
2022-09-16T22:04:06.232Z,94.80
2022-09-16T22:06:35.531Z,94.80
2022-09-16T22:09:07.018Z,95.40
2022-09-16T22:11:36.414Z,93.80
2022-09-16T22:14:05.309Z,93.80
2022-09-16T22:16:35.387Z,95.10
2022-09-16T22:19:05.088Z,94.40
2022-09-16T22:21:38.220Z,94.90
2022-09-16T22:24:07.172Z,94.40
2022-09-16T22:26:36.198Z,95.40
2022-09-16T22:29:06.123Z,95.20
2022-09-16T22:31:36.909Z,95.00
2022-09-16T22:34:05.057Z,94.80
2022-09-16T22:36:36.236Z,94.90
2022-09-16T22:39:06.776Z,93.30
2022-09-16T22:41:35.341Z,94.50
2022-09-16T22:44:03.764Z,94.60
2022-09-16T22:46:33.610Z,95.00
2022-09-16T22:49:02.180Z,95.00
2022-09-16T22:51:30.491Z,94.20
2022-09-16T22:53:59.835Z,94.70
2022-09-16T22:56:31.934Z,94.60
2022-09-16T22:59:01.390Z,94.70
2022-09-16T23:01:32.064Z,94.60
2022-09-16T23:04:01.876Z,94.30
2022-09-16T23:06:31.393Z,94.40
2022-09-16T23:09:01.512Z,93.30
2022-09-16T23:11:32.362Z,95.00
2022-09-16T23:14:01.216Z,94.90
2022-09-16T23:16:31.845Z,94.90
2022-09-16T23:19:01.219Z,94.20
2022-09-16T23:21:29.578Z,94.90
2022-09-16T23:24:05.956Z,93.60
2022-09-16T23:26:36.070Z,94.10
2022-09-16T23:29:06.203Z,94.70
2022-09-16T23:31:37.662Z,95.00
2022-09-16T23:34:07.810Z,94.10
2022-09-16T23:36:37.553Z,93.90
2022-09-16T23:39:08.012Z,94.60
2022-09-16T23:41:36.394Z,95.10
2022-09-16T23:44:04.650Z,95.10
2022-09-16T23:46:34.219Z,95.00
2022-09-16T23:49:02.215Z,95.10
2022-09-16T23:51:31.803Z,94.80
2022-09-16T23:54:00.857Z,95.10
2022-09-16T23:56:30.156Z,95.10
2022-09-16T23:59:00.464Z,95.30
